PWSweather.com
Personal Weather Stations
Station Observations
RODOLIVOS
Serres, Rodolivos SerresGR 62041

SerresRodolivos SerresGR 62041

Lat: 40.920725, Lon: 23.975814

Elevation: 1161

Station Type: Davis Vantage Vue

http://rodolivos-weather.gr/

High Low Average
Temperature 48.8°F9.3°F 42.2°F5.7°F 45.2°F7.3°F
Dew Point 42.4°F5.8°F 39.0°F3.9°F 40.9°F4.9°F
Winds 1.2 mph NE1.9 mph NE Calm Calm 0.2 mph 0.3 mph
Wind Gusts 3.5 mph5.6 mph -- 1.0 mph1.6 mph
Humidity 91% 77% 85%
Pressure 29.90 in1012.50 in 29.79 in1008.80 in -
Precipitation 0.00 in0.00 in - -
Hour Temp Dew Point Humidity Winds Wind Gusts Pressure Precip Precip Rate Daily Precip Total
06:40 AM 42.3°F5.7°C 39.0°F3.9°C 88% 1.2 mph NE1.9 kmh NE 3.5 mph5.6 kmh 29.79 in1008.8 mb - 0.00 in0.0 mm 0.00 in0.0 mm
06:50 AM 42.3°F5.7°C 39.0°F3.9°C 88% Calm Calm -- 29.79 in1008.8 mb - 0.00 in0.0 mm 0.00 in0.0 mm
07:00 AM 42.2°F5.7°C 39.2°F4.0°C 89% Calm Calm -- 29.79 in1008.8 mb - 0.00 in0.0 mm 0.00 in0.0 mm
07:10 AM 42.2°F5.7°C 39.2°F4.0°C 89% Calm Calm -- 29.79 in1008.8 mb - 0.00 in0.0 mm 0.00 in0.0 mm
07:20 AM 42.2°F5.7°C 39.2°F4.0°C 89% Calm Calm -- 29.79 in1008.8 mb - 0.00 in0.0 mm 0.00 in0.0 mm
07:30 AM 42.2°F5.7°C 39.2°F4.0°C 89% Calm Calm -- 29.79 in1008.8 mb - 0.00 in0.0 mm 0.00 in0.0 mm
07:40 AM 42.4°F5.8°C 39.3°F4.1°C 89% Calm Calm -- 29.80 in1009.1 mb - 0.00 in0.0 mm 0.00 in0.0 mm
07:50 AM 42.5°F5.8°C 39.5°F4.2°C 89% Calm Calm -- 29.80 in1009.1 mb - 0.00 in0.0 mm 0.00 in0.0 mm
08:00 AM 42.8°F6.0°C 39.8°F4.3°C 89% Calm Calm -- 29.81 in1009.5 mb - 0.00 in0.0 mm 0.00 in0.0 mm
08:10 AM 43.0°F6.1°C 39.7°F4.3°C 88% Calm Calm -- 29.81 in1009.5 mb - 0.00 in0.0 mm 0.00 in0.0 mm
08:20 AM 43.2°F6.2°C 39.9°F4.4°C 88% Calm Calm 1.2 mph1.9 kmh 29.82 in1009.8 mb - 0.00 in0.0 mm 0.00 in0.0 mm
08:30 AM 43.2°F6.2°C 39.9°F4.4°C 88% Calm Calm -- 29.82 in1009.8 mb - 0.00 in0.0 mm 0.00 in0.0 mm
08:40 AM 43.3°F6.3°C 40.0°F4.4°C 88% Calm Calm 2.3 mph3.7 kmh 29.82 in1009.8 mb - 0.00 in0.0 mm 0.00 in0.0 mm
08:50 AM 43.3°F6.3°C 39.7°F4.3°C 87% Calm Calm 1.2 mph1.9 kmh 29.82 in1009.8 mb - 0.00 in0.0 mm 0.00 in0.0 mm
09:00 AM 43.4°F6.3°C 39.8°F4.3°C 87% Calm Calm 1.2 mph1.9 kmh 29.82 in1009.8 mb - 0.00 in0.0 mm 0.00 in0.0 mm
09:10 AM 43.6°F6.4°C 40.0°F4.4°C 87% Calm Calm 1.2 mph1.9 kmh 29.83 in1010.2 mb - 0.00 in0.0 mm 0.00 in0.0 mm
09:20 AM 43.8°F6.6°C 40.2°F4.6°C 87% Calm Calm 1.2 mph1.9 kmh 29.83 in1010.2 mb - 0.00 in0.0 mm 0.00 in0.0 mm
09:30 AM 43.7°F6.5°C 40.1°F4.5°C 87% Calm Calm 1.2 mph1.9 kmh 29.83 in1010.2 mb - 0.00 in0.0 mm 0.00 in0.0 mm
09:40 AM 43.7°F6.5°C 40.1°F4.5°C 87% Calm Calm 1.2 mph1.9 kmh 29.83 in1010.2 mb - 0.00 in0.0 mm 0.00 in0.0 mm
09:50 AM 43.7°F6.5°C 40.1°F4.5°C 87% Calm Calm 1.2 mph1.9 kmh 29.83 in1010.2 mb - 0.00 in0.0 mm 0.00 in0.0 mm
10:00 AM 43.7°F6.5°C 40.1°F4.5°C 87% Calm Calm -- 29.84 in1010.5 mb - 0.00 in0.0 mm 0.00 in0.0 mm
10:10 AM 43.9°F6.6°C 40.3°F4.6°C 87% Calm Calm -- 29.83 in1010.2 mb - 0.00 in0.0 mm 0.00 in0.0 mm
10:20 AM 44.1°F6.7°C 40.5°F4.7°C 87% Calm Calm 1.2 mph1.9 kmh 29.84 in1010.5 mb - 0.00 in0.0 mm 0.00 in0.0 mm
10:30 AM 44.1°F6.7°C 40.2°F4.6°C 86% Calm Calm 1.2 mph1.9 kmh 29.84 in1010.5 mb - 0.00 in0.0 mm 0.00 in0.0 mm
10:40 AM 44.1°F6.7°C 40.1°F4.5°C 86% Calm Calm 2.3 mph3.7 kmh 29.84 in1010.5 mb - 0.00 in0.0 mm 0.00 in0.0 mm
10:50 AM 44.1°F6.7°C 40.2°F4.6°C 86% Calm Calm 1.2 mph1.9 kmh 29.84 in1010.5 mb - 0.00 in0.0 mm 0.00 in0.0 mm
11:00 AM 44.1°F6.7°C 40.2°F4.6°C 86% 1.2 mph N1.9 kmh N 1.2 mph1.9 kmh 29.84 in1010.5 mb - 0.00 in0.0 mm 0.00 in0.0 mm
11:10 AM 44.4°F6.9°C 40.5°F4.7°C 86% Calm Calm -- 29.84 in1010.5 mb - 0.00 in0.0 mm 0.00 in0.0 mm
11:20 AM 44.8°F7.1°C 40.5°F4.7°C 85% Calm Calm 1.2 mph1.9 kmh 29.84 in1010.5 mb - 0.00 in0.0 mm 0.00 in0.0 mm
11:30 AM 45.0°F7.2°C 40.8°F4.9°C 85% Calm Calm 1.2 mph1.9 kmh 29.85 in1010.8 mb - 0.00 in0.0 mm 0.00 in0.0 mm
11:40 AM 44.6°F7.0°C 40.7°F4.8°C 86% Calm Calm -- 29.85 in1010.8 mb - 0.00 in0.0 mm 0.00 in0.0 mm
11:50 AM 45.1°F7.3°C 41.5°F5.3°C 87% Calm Calm -- 29.85 in1010.8 mb - 0.00 in0.0 mm 0.00 in0.0 mm
12:00 PM 46.0°F7.8°C 41.7°F5.4°C 85% 1.2 mph NW1.9 kmh NW 2.3 mph3.7 kmh 29.85 in1010.8 mb - 0.00 in0.0 mm 0.00 in0.0 mm
12:10 PM 46.5°F8.1°C 42.3°F5.7°C 85% Calm Calm 1.2 mph1.9 kmh 29.85 in1010.8 mb - 0.00 in0.0 mm 0.00 in0.0 mm
12:20 PM 46.9°F8.3°C 41.7°F5.4°C 82% Calm Calm 1.2 mph1.9 kmh 29.85 in1010.8 mb - 0.00 in0.0 mm 0.00 in0.0 mm
12:30 PM 46.9°F8.3°C 42.0°F5.6°C 83% Calm Calm -- 29.85 in1010.8 mb - 0.00 in0.0 mm 0.00 in0.0 mm
12:40 PM 47.0°F8.3°C 41.8°F5.4°C 82% Calm Calm 1.2 mph1.9 kmh 29.85 in1010.8 mb - 0.00 in0.0 mm 0.00 in0.0 mm
12:50 PM 46.7°F8.2°C 41.5°F5.3°C 82% 1.2 mph SE1.9 kmh SE 3.5 mph5.6 kmh 29.85 in1010.8 mb - 0.00 in0.0 mm 0.00 in0.0 mm
01:00 PM 46.3°F7.9°C 41.1°F5.1°C 82% 1.2 mph SE1.9 kmh SE 3.5 mph5.6 kmh 29.85 in1010.8 mb - 0.00 in0.0 mm 0.00 in0.0 mm
01:10 PM 46.0°F7.8°C 40.8°F4.9°C 82% 1.2 mph SSE1.9 kmh SSE 1.2 mph1.9 kmh 29.85 in1010.8 mb - 0.00 in0.0 mm 0.00 in0.0 mm
01:20 PM 45.9°F7.7°C 41.0°F5.0°C 83% Calm Calm 1.2 mph1.9 kmh 29.85 in1010.8 mb - 0.00 in0.0 mm 0.00 in0.0 mm
01:30 PM 46.3°F7.9°C 41.4°F5.2°C 83% Calm Calm -- 29.85 in1010.8 mb - 0.00 in0.0 mm 0.00 in0.0 mm
01:40 PM 46.9°F8.3°C 41.7°F5.4°C 82% Calm Calm -- 29.84 in1010.5 mb - 0.00 in0.0 mm 0.00 in0.0 mm
01:50 PM 47.5°F8.6°C 41.9°F5.5°C 81% Calm Calm -- 29.84 in1010.5 mb - 0.00 in0.0 mm 0.00 in0.0 mm
02:00 PM 47.7°F8.7°C 41.9°F5.5°C 80% Calm Calm -- 29.84 in1010.5 mb - 0.00 in0.0 mm 0.00 in0.0 mm
02:10 PM 48.3°F9.1°C 41.7°F5.4°C 78% Calm Calm -- 29.84 in1010.5 mb - 0.00 in0.0 mm 0.00 in0.0 mm
02:20 PM 48.8°F9.3°C 41.9°F5.5°C 77% Calm Calm 2.3 mph3.7 kmh 29.84 in1010.5 mb - 0.00 in0.0 mm 0.00 in0.0 mm
02:30 PM 48.8°F9.3°C 42.2°F5.7°C 78% Calm Calm 1.2 mph1.9 kmh 29.84 in1010.5 mb - 0.00 in0.0 mm 0.00 in0.0 mm
02:40 PM 48.7°F9.3°C 42.1°F5.6°C 78% Calm Calm 1.2 mph1.9 kmh 29.84 in1010.5 mb - 0.00 in0.0 mm 0.00 in0.0 mm
02:50 PM 48.2°F9.0°C 42.0°F5.6°C 79% Calm Calm 1.2 mph1.9 kmh 29.85 in1010.8 mb - 0.00 in0.0 mm 0.00 in0.0 mm
03:00 PM 47.6°F8.7°C 42.1°F5.6°C 81% 1.2 mph SSW1.9 kmh SSW 2.3 mph3.7 kmh 29.84 in1010.5 mb - 0.00 in0.0 mm 0.00 in0.0 mm
03:10 PM 47.0°F8.3°C 41.8°F5.4°C 82% Calm Calm 3.5 mph5.6 kmh 29.84 in1010.5 mb - 0.00 in0.0 mm 0.00 in0.0 mm
03:20 PM 47.0°F8.3°C 42.1°F5.6°C 83% Calm Calm 2.3 mph3.7 kmh 29.84 in1010.5 mb - 0.00 in0.0 mm 0.00 in0.0 mm
03:30 PM 47.3°F8.5°C 42.4°F5.8°C 83% 1.2 mph SE1.9 kmh SE 3.5 mph5.6 kmh 29.84 in1010.5 mb - 0.00 in0.0 mm 0.00 in0.0 mm
03:40 PM 47.7°F8.7°C 42.2°F5.7°C 81% Calm Calm -- 29.84 in1010.5 mb - 0.00 in0.0 mm 0.00 in0.0 mm
03:50 PM 48.2°F9.0°C 42.0°F5.6°C 79% Calm Calm 1.2 mph1.9 kmh 29.84 in1010.5 mb - 0.00 in0.0 mm 0.00 in0.0 mm
04:00 PM 48.3°F9.1°C 42.1°F5.6°C 79% Calm Calm -- 29.85 in1010.8 mb - 0.00 in0.0 mm 0.00 in0.0 mm
04:10 PM 48.6°F9.2°C 42.4°F5.8°C 79% Calm Calm -- 29.84 in1010.5 mb - 0.00 in0.0 mm 0.00 in0.0 mm
04:20 PM 48.6°F9.2°C 42.0°F5.6°C 78% Calm Calm -- 29.85 in1010.8 mb - 0.00 in0.0 mm 0.00 in0.0 mm
04:30 PM 48.3°F9.1°C 42.1°F5.6°C 79% Calm Calm 1.2 mph1.9 kmh 29.85 in1010.8 mb - 0.00 in0.0 mm 0.00 in0.0 mm
04:40 PM 48.0°F8.9°C 42.1°F5.6°C 80% Calm Calm 1.2 mph1.9 kmh 29.85 in1010.8 mb - 0.00 in0.0 mm 0.00 in0.0 mm
04:50 PM 47.7°F8.7°C 41.9°F5.5°C 80% Calm Calm 1.2 mph1.9 kmh 29.85 in1010.8 mb - 0.00 in0.0 mm 0.00 in0.0 mm
05:00 PM 47.6°F8.7°C 41.7°F5.4°C 80% Calm Calm 1.2 mph1.9 kmh 29.85 in1010.8 mb - 0.00 in0.0 mm 0.00 in0.0 mm
05:10 PM 47.4°F8.6°C 41.9°F5.5°C 81% Calm Calm 1.2 mph1.9 kmh 29.85 in1010.8 mb - 0.00 in0.0 mm 0.00 in0.0 mm
05:20 PM 47.1°F8.4°C 41.6°F5.3°C 81% Calm Calm 1.2 mph1.9 kmh 29.85 in1010.8 mb - 0.00 in0.0 mm 0.00 in0.0 mm
05:30 PM 46.9°F8.3°C 41.4°F5.2°C 81% 1.2 mph SSW1.9 kmh SSW -- 29.85 in1010.8 mb - 0.00 in0.0 mm 0.00 in0.0 mm
05:40 PM 46.8°F8.2°C 41.6°F5.3°C 82% Calm Calm 1.2 mph1.9 kmh 29.86 in1011.2 mb - 0.00 in0.0 mm 0.00 in0.0 mm
05:50 PM 46.5°F8.1°C 41.3°F5.2°C 82% 1.2 mph SSW1.9 kmh SSW 3.5 mph5.6 kmh 29.86 in1011.2 mb - 0.00 in0.0 mm 0.00 in0.0 mm
06:00 PM 46.3°F7.9°C 41.4°F5.2°C 83% 1.2 mph SW1.9 kmh SW 2.3 mph3.7 kmh 29.86 in1011.2 mb - 0.00 in0.0 mm 0.00 in0.0 mm
06:10 PM 46.1°F7.8°C 41.5°F5.3°C 84% Calm Calm 1.2 mph1.9 kmh 29.86 in1011.2 mb - 0.00 in0.0 mm 0.00 in0.0 mm
06:20 PM 46.0°F7.8°C 41.4°F5.2°C 84% Calm Calm 1.2 mph1.9 kmh 29.86 in1011.2 mb - 0.00 in0.0 mm 0.00 in0.0 mm
06:30 PM 45.9°F7.7°C 41.6°F5.3°C 85% 1.2 mph SSE1.9 kmh SSE 1.2 mph1.9 kmh 29.87 in1011.5 mb - 0.00 in0.0 mm 0.00 in0.0 mm
06:40 PM 45.7°F7.6°C 41.4°F5.2°C 85% 1.2 mph SSW1.9 kmh SSW 2.3 mph3.7 kmh 29.87 in1011.5 mb - 0.00 in0.0 mm 0.00 in0.0 mm
06:50 PM 45.6°F7.6°C 41.3°F5.2°C 85% Calm Calm 1.2 mph1.9 kmh 29.87 in1011.5 mb - 0.00 in0.0 mm 0.00 in0.0 mm
07:00 PM 45.5°F7.5°C 41.3°F5.2°C 85% Calm Calm 1.2 mph1.9 kmh 29.88 in1011.9 mb - 0.00 in0.0 mm 0.00 in0.0 mm
07:10 PM 45.4°F7.4°C 41.2°F5.1°C 85% Calm Calm -- 29.88 in1011.9 mb - 0.00 in0.0 mm 0.00 in0.0 mm
07:20 PM 45.4°F7.4°C 41.2°F5.1°C 85% Calm Calm 1.2 mph1.9 kmh 29.88 in1011.9 mb - 0.00 in0.0 mm 0.00 in0.0 mm
07:30 PM 45.2°F7.3°C 41.3°F5.2°C 86% Calm Calm 1.2 mph1.9 kmh 29.88 in1011.9 mb - 0.00 in0.0 mm 0.00 in0.0 mm
09:00 PM 44.3°F6.8°C 40.7°F4.8°C 87% Calm Calm -- 29.89 in1012.2 mb - 0.00 in0.0 mm 0.00 in0.0 mm
09:10 PM 44.3°F6.8°C 41.0°F5.0°C 88% Calm Calm -- 29.90 in1012.5 mb - 0.00 in0.0 mm 0.00 in0.0 mm
09:20 PM 44.2°F6.8°C 40.9°F4.9°C 88% Calm Calm -- 29.90 in1012.5 mb - 0.00 in0.0 mm 0.00 in0.0 mm
09:30 PM 44.2°F6.8°C 40.9°F4.9°C 88% Calm Calm 1.2 mph1.9 kmh 29.89 in1012.2 mb - 0.00 in0.0 mm 0.00 in0.0 mm
09:40 PM 44.2°F6.8°C 40.9°F4.9°C 88% Calm Calm -- 29.90 in1012.5 mb - 0.00 in0.0 mm 0.00 in0.0 mm
09:50 PM 44.0°F6.7°C 40.7°F4.8°C 88% Calm Calm -- 29.90 in1012.5 mb - 0.00 in0.0 mm 0.00 in0.0 mm
10:00 PM 43.6°F6.4°C 40.3°F4.6°C 88% Calm Calm -- 29.90 in1012.5 mb - 0.00 in0.0 mm 0.00 in0.0 mm
10:10 PM 43.1°F6.2°C 40.1°F4.5°C 89% Calm Calm -- 29.90 in1012.5 mb - 0.00 in0.0 mm 0.00 in0.0 mm
10:20 PM 42.9°F6.1°C 40.2°F4.6°C 90% Calm Calm -- 29.90 in1012.5 mb - 0.00 in0.0 mm 0.00 in0.0 mm
10:30 PM 42.4°F5.8°C 39.7°F4.3°C 90% Calm Calm 1.2 mph1.9 kmh 29.90 in1012.5 mb - 0.00 in0.0 mm 0.00 in0.0 mm
10:40 PM 42.3°F5.7°C 39.9°F4.4°C 91% Calm Calm 1.2 mph1.9 kmh 29.90 in1012.5 mb - 0.00 in0.0 mm 0.00 in0.0 mm
10:50 PM 42.7°F5.9°C 40.0°F4.4°C 90% Calm Calm -- 29.90 in1012.5 mb - 0.00 in0.0 mm 0.00 in0.0 mm
11:00 PM 42.9°F6.1°C 40.2°F4.6°C 90% 1.2 mph E1.9 kmh E 2.3 mph3.7 kmh 29.90 in1012.5 mb - 0.00 in0.0 mm 0.00 in0.0 mm
11:10 PM 43.2°F6.2°C 40.2°F4.6°C 89% Calm Calm -- 29.90 in1012.5 mb - 0.00 in0.0 mm 0.00 in0.0 mm
11:20 PM 43.4°F6.3°C 40.4°F4.7°C 89% Calm Calm 1.2 mph1.9 kmh 29.90 in1012.5 mb - 0.00 in0.0 mm 0.00 in0.0 mm